sensor_id;sensor_type;location;lat;lon;timestamp;pressure;altitude;pressure_sealevel;temperature;humidity
77823;BME280;67013;49.730;17.292;2023-01-25T00:00:14;100040.89;;;4.07;71.15
77823;BME280;67013;49.730;17.292;2023-01-25T00:02:43;100047.58;;;4.00;71.19
77823;BME280;67013;49.730;17.292;2023-01-25T00:05:13;100039.70;;;3.98;71.44
77823;BME280;67013;49.730;17.292;2023-01-25T00:07:43;100036.17;;;4.01;71.68
77823;BME280;67013;49.730;17.292;2023-01-25T00:10:12;100028.75;;;4.02;71.42
77823;BME280;67013;49.730;17.292;2023-01-25T00:12:42;100028.23;;;4.03;71.61
77823;BME280;67013;49.730;17.292;2023-01-25T00:15:12;100031.85;;;4.02;71.37
77823;BME280;67013;49.730;17.292;2023-01-25T00:17:41;100033.95;;;4.01;71.58
77823;BME280;67013;49.730;17.292;2023-01-25T00:20:11;100036.62;;;3.98;71.14
77823;BME280;67013;49.730;17.292;2023-01-25T00:22:41;100038.71;;;3.96;71.41
77823;BME280;67013;49.730;17.292;2023-01-25T00:25:11;100035.13;;;3.94;71.91
77823;BME280;67013;49.730;17.292;2023-01-25T00:27:40;100033.05;;;3.95;71.66
77823;BME280;67013;49.730;17.292;2023-01-25T00:30:12;100036.91;;;3.91;71.45
77823;BME280;67013;49.730;17.292;2023-01-25T00:33:00;100031.48;;;3.86;71.58
77823;BME280;67013;49.730;17.292;2023-01-25T00:35:32;100031.41;;;3.82;71.76
77823;BME280;67013;49.730;17.292;2023-01-25T00:38:06;100033.63;;;3.83;72.23
77823;BME280;67013;49.730;17.292;2023-01-25T00:40:53;100032.34;;;3.87;72.17
77823;BME280;67013;49.730;17.292;2023-01-25T00:43:22;100035.70;;;3.91;72.21
77823;BME280;67013;49.730;17.292;2023-01-25T00:45:51;100028.10;;;3.93;71.78
77823;BME280;67013;49.730;17.292;2023-01-25T00:48:28;100026.70;;;3.94;72.25
77823;BME280;67013;49.730;17.292;2023-01-25T00:51:02;100035.31;;;3.94;72.12
77823;BME280;67013;49.730;17.292;2023-01-25T00:53:31;100039.99;;;3.91;71.71
77823;BME280;67013;49.730;17.292;2023-01-25T00:56:01;100033.84;;;3.89;71.97
77823;BME280;67013;49.730;17.292;2023-01-25T00:58:31;100029.74;;;3.79;71.50
77823;BME280;67013;49.730;17.292;2023-01-25T01:01:00;100031.98;;;3.70;72.05
77823;BME280;67013;49.730;17.292;2023-01-25T01:03:29;100028.92;;;3.68;72.26
77823;BME280;67013;49.730;17.292;2023-01-25T01:06:03;100027.52;;;3.70;72.42
77823;BME280;67013;49.730;17.292;2023-01-25T01:08:36;100025.66;;;3.68;72.04
77823;BME280;67013;49.730;17.292;2023-01-25T01:11:09;100017.80;;;3.65;72.42
77823;BME280;67013;49.730;17.292;2023-01-25T01:13:39;100020.05;;;3.65;72.55
77823;BME280;67013;49.730;17.292;2023-01-25T01:16:11;100022.16;;;3.61;72.43
77823;BME280;67013;49.730;17.292;2023-01-25T01:18:43;100021.68;;;3.59;72.64
77823;BME280;67013;49.730;17.292;2023-01-25T01:21:13;100015.67;;;3.58;72.65
77823;BME280;67013;49.730;17.292;2023-01-25T01:23:43;100016.29;;;3.54;72.90
77823;BME280;67013;49.730;17.292;2023-01-25T01:26:14;100025.05;;;3.55;72.79
77823;BME280;67013;49.730;17.292;2023-01-25T01:28:46;100022.64;;;3.55;72.70
77823;BME280;67013;49.730;17.292;2023-01-25T01:31:17;100021.64;;;3.52;72.49
77823;BME280;67013;49.730;17.292;2023-01-25T01:33:50;100020.98;;;3.50;72.64
77823;BME280;67013;49.730;17.292;2023-01-25T01:36:22;100017.11;;;3.45;72.52
77823;BME280;67013;49.730;17.292;2023-01-25T01:38:52;100021.12;;;3.42;72.69
77823;BME280;67013;49.730;17.292;2023-01-25T01:41:22;100023.20;;;3.41;73.23
77823;BME280;67013;49.730;17.292;2023-01-25T01:43:51;100018.28;;;3.37;72.79
77823;BME280;67013;49.730;17.292;2023-01-25T01:46:25;100017.91;;;3.29;72.76
77823;BME280;67013;49.730;17.292;2023-01-25T01:49:00;100012.40;;;3.29;73.47
77823;BME280;67013;49.730;17.292;2023-01-25T01:51:38;100014.77;;;3.33;73.40
77823;BME280;67013;49.730;17.292;2023-01-25T01:54:13;100015.70;;;3.39;73.20
77823;BME280;67013;49.730;17.292;2023-01-25T01:56:51;100013.02;;;3.43;72.71
77823;BME280;67013;49.730;17.292;2023-01-25T01:59:26;100013.84;;;3.46;72.85
77823;BME280;67013;49.730;17.292;2023-01-25T02:01:56;100007.27;;;3.47;72.76
77823;BME280;67013;49.730;17.292;2023-01-25T02:04:27;100006.07;;;3.47;72.81
77823;BME280;67013;49.730;17.292;2023-01-25T02:07:00;100010.02;;;3.48;73.13
77823;BME280;67013;49.730;17.292;2023-01-25T02:09:33;100004.17;;;3.47;72.87
77823;BME280;67013;49.730;17.292;2023-01-25T02:12:05;100007.65;;;3.45;72.77
77823;BME280;67013;49.730;17.292;2023-01-25T02:14:37;100001.67;;;3.43;72.78
77823;BME280;67013;49.730;17.292;2023-01-25T02:17:11;100004.23;;;3.45;72.83
77823;BME280;67013;49.730;17.292;2023-01-25T02:19:48;99999.88;;;3.47;72.99
77823;BME280;67013;49.730;17.292;2023-01-25T02:22:29;99998.76;;;3.53;72.99
77823;BME280;67013;49.730;17.292;2023-01-25T02:25:07;99992.35;;;3.56;73.00
77823;BME280;67013;49.730;17.292;2023-01-25T02:27:41;99995.36;;;3.59;72.93
77823;BME280;67013;49.730;17.292;2023-01-25T02:30:13;99995.85;;;3.61;72.99
77823;BME280;67013;49.730;17.292;2023-01-25T02:32:42;99989.27;;;3.64;73.44
77823;BME280;67013;49.730;17.292;2023-01-25T02:35:19;99991.30;;;3.65;72.93
77823;BME280;67013;49.730;17.292;2023-01-25T02:37:49;99991.47;;;3.66;72.94
77823;BME280;67013;49.730;17.292;2023-01-25T02:40:19;99989.73;;;3.66;72.82
77823;BME280;67013;49.730;17.292;2023-01-25T02:42:48;99985.80;;;3.66;72.99
77823;BME280;67013;49.730;17.292;2023-01-25T02:45:19;99981.64;;;3.67;72.87
77823;BME280;67013;49.730;17.292;2023-01-25T02:47:53;99983.48;;;3.70;72.77
77823;BME280;67013;49.730;17.292;2023-01-25T02:50:23;99981.33;;;3.73;72.53
77823;BME280;67013;49.730;17.292;2023-01-25T02:52:52;99981.26;;;3.77;72.69
77823;BME280;67013;49.730;17.292;2023-01-25T02:55:22;99980.70;;;3.80;72.32
77823;BME280;67013;49.730;17.292;2023-01-25T02:57:51;99979.98;;;3.81;72.10
77823;BME280;67013;49.730;17.292;2023-01-25T03:00:21;99978.27;;;3.80;72.17
77823;BME280;67013;49.730;17.292;2023-01-25T03:02:50;99973.14;;;3.79;72.18
77823;BME280;67013;49.730;17.292;2023-01-25T03:05:20;99973.52;;;3.77;71.80
77823;BME280;67013;49.730;17.292;2023-01-25T03:07:49;99966.36;;;3.73;71.76
77823;BME280;67013;49.730;17.292;2023-01-25T03:10:20;99962.84;;;3.69;71.96
77823;BME280;67013;49.730;17.292;2023-01-25T03:12:49;99959.48;;;3.65;71.75
77823;BME280;67013;49.730;17.292;2023-01-25T03:15:19;99957.82;;;3.62;71.82
77823;BME280;67013;49.730;17.292;2023-01-25T03:17:48;99957.00;;;3.59;71.51
77823;BME280;67013;49.730;17.292;2023-01-25T03:20:18;99953.91;;;3.58;71.91
77823;BME280;67013;49.730;17.292;2023-01-25T03:22:47;99955.50;;;3.57;71.78
77823;BME280;67013;49.730;17.292;2023-01-25T03:25:17;99950.06;;;3.54;71.65
77823;BME280;67013;49.730;17.292;2023-01-25T03:27:47;99951.14;;;3.51;71.83
77823;BME280;67013;49.730;17.292;2023-01-25T03:30:16;99957.40;;;3.47;71.83
77823;BME280;67013;49.730;17.292;2023-01-25T03:32:46;99953.52;;;3.42;71.87
77823;BME280;67013;49.730;17.292;2023-01-25T03:35:15;99952.11;;;3.37;71.91
77823;BME280;67013;49.730;17.292;2023-01-25T03:37:45;99951.67;;;3.32;72.12
77823;BME280;67013;49.730;17.292;2023-01-25T03:40:15;99948.33;;;3.27;72.26
77823;BME280;67013;49.730;17.292;2023-01-25T03:42:45;99945.30;;;3.24;72.26
77823;BME280;67013;49.730;17.292;2023-01-25T03:45:14;99948.94;;;3.23;72.32
77823;BME280;67013;49.730;17.292;2023-01-25T03:47:44;99953.95;;;3.21;72.48
77823;BME280;67013;49.730;17.292;2023-01-25T03:50:14;99955.64;;;3.23;72.45
77823;BME280;67013;49.730;17.292;2023-01-25T03:52:44;99958.56;;;3.23;72.44
77823;BME280;67013;49.730;17.292;2023-01-25T03:55:15;99959.06;;;3.23;72.79
77823;BME280;67013;49.730;17.292;2023-01-25T03:57:45;99952.88;;;3.24;72.44
77823;BME280;67013;49.730;17.292;2023-01-25T04:00:17;99953.73;;;3.24;72.59
77823;BME280;67013;49.730;17.292;2023-01-25T04:02:47;99952.34;;;3.25;72.60
77823;BME280;67013;49.730;17.292;2023-01-25T04:05:17;99944.95;;;3.25;72.46
77823;BME280;67013;49.730;17.292;2023-01-25T04:07:47;99944.61;;;3.25;72.59
77823;BME280;67013;49.730;17.292;2023-01-25T04:10:16;99944.39;;;3.26;72.63
77823;BME280;67013;49.730;17.292;2023-01-25T04:12:46;99940.70;;;3.30;72.73
77823;BME280;67013;49.730;17.292;2023-01-25T04:15:15;99936.68;;;3.34;72.65
77823;BME280;67013;49.730;17.292;2023-01-25T04:17:45;99935.94;;;3.38;72.62
77823;BME280;67013;49.730;17.292;2023-01-25T04:20:14;99932.09;;;3.41;72.57
77823;BME280;67013;49.730;17.292;2023-01-25T04:22:44;99930.67;;;3.42;72.58
77823;BME280;67013;49.730;17.292;2023-01-25T04:25:14;99927.55;;;3.44;72.29
77823;BME280;67013;49.730;17.292;2023-01-25T04:27:43;99929.93;;;3.45;72.50
77823;BME280;67013;49.730;17.292;2023-01-25T04:30:13;99925.81;;;3.44;72.34
77823;BME280;67013;49.730;17.292;2023-01-25T04:32:43;99929.08;;;3.44;72.60
77823;BME280;67013;49.730;17.292;2023-01-25T04:35:13;99927.37;;;3.44;72.39
77823;BME280;67013;49.730;17.292;2023-01-25T04:37:42;99929.13;;;3.42;72.32
77823;BME280;67013;49.730;17.292;2023-01-25T04:40:12;99925.59;;;3.39;72.38
77823;BME280;67013;49.730;17.292;2023-01-25T04:42:42;99925.62;;;3.38;72.28
77823;BME280;67013;49.730;17.292;2023-01-25T04:45:12;99923.85;;;3.40;72.64
77823;BME280;67013;49.730;17.292;2023-01-25T04:47:41;99926.19;;;3.42;72.41
77823;BME280;67013;49.730;17.292;2023-01-25T04:50:11;99929.77;;;3.44;72.34
77823;BME280;67013;49.730;17.292;2023-01-25T04:52:41;99928.02;;;3.46;72.51
77823;BME280;67013;49.730;17.292;2023-01-25T04:55:10;99925.76;;;3.47;72.47
77823;BME280;67013;49.730;17.292;2023-01-25T04:57:40;99931.92;;;3.49;72.55
77823;BME280;67013;49.730;17.292;2023-01-25T05:00:12;99936.21;;;3.49;72.14
77823;BME280;67013;49.730;17.292;2023-01-25T05:02:41;99932.61;;;3.48;72.48
77823;BME280;67013;49.730;17.292;2023-01-25T05:05:12;99932.82;;;3.47;72.21
77823;BME280;67013;49.730;17.292;2023-01-25T05:07:41;99933.20;;;3.45;72.35
77823;BME280;67013;49.730;17.292;2023-01-25T05:10:11;99928.22;;;3.44;72.36
77823;BME280;67013;49.730;17.292;2023-01-25T05:12:41;99926.52;;;3.43;72.42
77823;BME280;67013;49.730;17.292;2023-01-25T05:15:11;99922.77;;;3.42;72.65
77823;BME280;67013;49.730;17.292;2023-01-25T05:17:41;99923.45;;;3.41;72.37
77823;BME280;67013;49.730;17.292;2023-01-25T05:20:12;99927.41;;;3.41;72.35
77823;BME280;67013;49.730;17.292;2023-01-25T05:22:41;99923.25;;;3.43;72.68
77823;BME280;67013;49.730;17.292;2023-01-25T05:25:11;99924.75;;;3.46;72.73
77823;BME280;67013;49.730;17.292;2023-01-25T05:27:54;99924.36;;;3.48;72.51
77823;BME280;67013;49.730;17.292;2023-01-25T05:30:24;99925.58;;;3.48;72.17
77823;BME280;67013;49.730;17.292;2023-01-25T05:32:53;99919.88;;;3.49;72.44
77823;BME280;67013;49.730;17.292;2023-01-25T05:35:22;99915.73;;;3.50;72.37
77823;BME280;67013;49.730;17.292;2023-01-25T05:37:56;99921.25;;;3.50;72.41
77823;BME280;67013;49.730;17.292;2023-01-25T05:40:26;99917.48;;;3.49;72.49
77823;BME280;67013;49.730;17.292;2023-01-25T05:42:57;99918.41;;;3.45;72.25
77823;BME280;67013;49.730;17.292;2023-01-25T05:45:27;99916.28;;;3.40;72.30
77823;BME280;67013;49.730;17.292;2023-01-25T05:47:57;99912.92;;;3.36;72.40
77823;BME280;67013;49.730;17.292;2023-01-25T05:50:27;99914.33;;;3.35;72.43
77823;BME280;67013;49.730;17.292;2023-01-25T05:52:57;99914.32;;;3.35;72.22
77823;BME280;67013;49.730;17.292;2023-01-25T05:55:26;99913.77;;;3.37;72.33
77823;BME280;67013;49.730;17.292;2023-01-25T05:57:57;99911.84;;;3.39;72.34
77823;BME280;67013;49.730;17.292;2023-01-25T06:00:26;99907.48;;;3.41;72.26
77823;BME280;67013;49.730;17.292;2023-01-25T06:02:56;99908.17;;;3.41;72.61
77823;BME280;67013;49.730;17.292;2023-01-25T06:05:28;99913.98;;;3.43;72.56
77823;BME280;67013;49.730;17.292;2023-01-25T06:07:58;99910.69;;;3.44;72.47
77823;BME280;67013;49.730;17.292;2023-01-25T06:10:27;99915.68;;;3.44;72.35
77823;BME280;67013;49.730;17.292;2023-01-25T06:13:00;99911.55;;;3.44;72.42
77823;BME280;67013;49.730;17.292;2023-01-25T06:15:29;99918.88;;;3.39;72.11
77823;BME280;67013;49.730;17.292;2023-01-25T06:17:58;99917.00;;;3.38;72.29
77823;BME280;67013;49.730;17.292;2023-01-25T06:20:28;99921.96;;;3.40;72.16
77823;BME280;67013;49.730;17.292;2023-01-25T06:22:57;99922.59;;;3.42;72.14
77823;BME280;67013;49.730;17.292;2023-01-25T06:25:27;99922.04;;;3.44;71.95
77823;BME280;67013;49.730;17.292;2023-01-25T06:27:56;99912.73;;;3.45;72.12
77823;BME280;67013;49.730;17.292;2023-01-25T06:30:26;99913.06;;;3.46;71.97
77823;BME280;67013;49.730;17.292;2023-01-25T06:32:58;99909.45;;;3.46;71.86
77823;BME280;67013;49.730;17.292;2023-01-25T06:35:27;99910.98;;;3.46;72.06
77823;BME280;67013;49.730;17.292;2023-01-25T06:37:59;99912.05;;;3.44;71.81
77823;BME280;67013;49.730;17.292;2023-01-25T06:40:29;99910.24;;;3.41;71.71
77823;BME280;67013;49.730;17.292;2023-01-25T06:43:06;99909.04;;;3.32;71.71
77823;BME280;67013;49.730;17.292;2023-01-25T06:45:36;99915.27;;;3.21;71.72
77823;BME280;67013;49.730;17.292;2023-01-25T06:48:06;99914.95;;;3.20;71.91
77823;BME280;67013;49.730;17.292;2023-01-25T06:50:35;99912.70;;;3.20;71.95
77823;BME280;67013;49.730;17.292;2023-01-25T06:53:04;99915.61;;;3.21;71.98
77823;BME280;67013;49.730;17.292;2023-01-25T06:55:34;99912.34;;;3.22;71.94
77823;BME280;67013;49.730;17.292;2023-01-25T06:58:03;99908.04;;;3.22;71.88
77823;BME280;67013;49.730;17.292;2023-01-25T07:00:33;99907.52;;;3.22;71.67
77823;BME280;67013;49.730;17.292;2023-01-25T07:03:02;99908.38;;;3.22;71.96
77823;BME280;67013;49.730;17.292;2023-01-25T07:05:33;99908.52;;;3.24;72.09
77823;BME280;67013;49.730;17.292;2023-01-25T07:08:02;99914.52;;;3.25;72.11
77823;BME280;67013;49.730;17.292;2023-01-25T07:10:32;99914.32;;;3.26;72.08
77823;BME280;67013;49.730;17.292;2023-01-25T07:13:01;99910.23;;;3.25;72.12
77823;BME280;67013;49.730;17.292;2023-01-25T07:15:31;99907.95;;;3.26;71.92
77823;BME280;67013;49.730;17.292;2023-01-25T07:18:00;99900.56;;;3.26;71.64
77823;BME280;67013;49.730;17.292;2023-01-25T07:20:30;99906.84;;;3.21;71.64
77823;BME280;67013;49.730;17.292;2023-01-25T07:23:00;99906.98;;;3.23;72.09
77823;BME280;67013;49.730;17.292;2023-01-25T07:25:30;99898.20;;;3.24;71.99
77823;BME280;67013;49.730;17.292;2023-01-25T07:27:59;99906.84;;;3.21;71.68
77823;BME280;67013;49.730;17.292;2023-01-25T07:30:29;99897.52;;;3.13;71.64
77823;BME280;67013;49.730;17.292;2023-01-25T07:32:59;99894.88;;;3.08;71.89
77823;BME280;67013;49.730;17.292;2023-01-25T07:35:29;99889.92;;;3.06;71.78
77823;BME280;67013;49.730;17.292;2023-01-25T07:37:59;99890.64;;;3.05;71.89
77823;BME280;67013;49.730;17.292;2023-01-25T07:40:28;99895.52;;;3.01;71.91
77823;BME280;67013;49.730;17.292;2023-01-25T07:42:58;99893.06;;;3.04;72.30
77823;BME280;67013;49.730;17.292;2023-01-25T07:45:28;99898.17;;;3.07;72.04
77823;BME280;67013;49.730;17.292;2023-01-25T07:47:59;99895.09;;;3.06;72.05
77823;BME280;67013;49.730;17.292;2023-01-25T07:50:29;99893.96;;;3.02;72.15
77823;BME280;67013;49.730;17.292;2023-01-25T07:52:58;99903.65;;;2.88;72.20
77823;BME280;67013;49.730;17.292;2023-01-25T07:55:28;99909.39;;;2.83;72.60
77823;BME280;67013;49.730;17.292;2023-01-25T07:57:57;99905.77;;;2.83;72.82
77823;BME280;67013;49.730;17.292;2023-01-25T08:00:27;99903.19;;;2.84;72.80
77823;BME280;67013;49.730;17.292;2023-01-25T08:02:57;99901.91;;;2.90;72.83
77823;BME280;67013;49.730;17.292;2023-01-25T08:05:26;99901.81;;;2.96;72.88
77823;BME280;67013;49.730;17.292;2023-01-25T08:07:55;99900.64;;;3.03;72.86
77823;BME280;67013;49.730;17.292;2023-01-25T08:10:25;99900.27;;;3.05;72.38
77823;BME280;67013;49.730;17.292;2023-01-25T08:12:54;99899.64;;;3.01;72.28
77823;BME280;67013;49.730;17.292;2023-01-25T08:15:24;99900.03;;;2.98;72.31
77823;BME280;67013;49.730;17.292;2023-01-25T08:17:53;99898.79;;;2.92;72.38
77823;BME280;67013;49.730;17.292;2023-01-25T08:20:23;99899.91;;;2.86;72.62
77823;BME280;67013;49.730;17.292;2023-01-25T08:22:53;99901.89;;;2.81;72.68
77823;BME280;67013;49.730;17.292;2023-01-25T08:25:23;99906.39;;;2.80;72.69
77823;BME280;67013;49.730;17.292;2023-01-25T08:27:53;99903.79;;;2.81;72.72
77823;BME280;67013;49.730;17.292;2023-01-25T08:30:23;99898.98;;;2.81;72.75
77823;BME280;67013;49.730;17.292;2023-01-25T08:32:52;99894.86;;;2.81;72.69
77823;BME280;67013;49.730;17.292;2023-01-25T08:35:22;99894.39;;;2.87;72.98
77823;BME280;67013;49.730;17.292;2023-01-25T08:37:51;99894.41;;;2.96;72.92
77823;BME280;67013;49.730;17.292;2023-01-25T08:40:21;99891.94;;;2.99;72.46
77823;BME280;67013;49.730;17.292;2023-01-25T08:42:50;99891.75;;;2.92;72.28
77823;BME280;67013;49.730;17.292;2023-01-25T08:45:20;99889.00;;;2.81;72.03
77823;BME280;67013;49.730;17.292;2023-01-25T08:47:49;99891.04;;;2.72;72.47
77823;BME280;67013;49.730;17.292;2023-01-25T08:50:19;99894.94;;;2.65;72.13
77823;BME280;67013;49.730;17.292;2023-01-25T08:52:48;99890.41;;;2.58;72.28
77823;BME280;67013;49.730;17.292;2023-01-25T08:55:19;99889.14;;;2.53;72.39
77823;BME280;67013;49.730;17.292;2023-01-25T08:57:49;99895.21;;;2.49;72.82
77823;BME280;67013;49.730;17.292;2023-01-25T09:00:20;99892.98;;;2.50;72.78
77823;BME280;67013;49.730;17.292;2023-01-25T09:02:50;99886.67;;;2.56;72.89
77823;BME280;67013;49.730;17.292;2023-01-25T09:05:19;99886.58;;;2.63;72.91
77823;BME280;67013;49.730;17.292;2023-01-25T09:07:49;99879.30;;;2.66;72.53
77823;BME280;67013;49.730;17.292;2023-01-25T09:10:19;99878.22;;;2.68;72.56
77823;BME280;67013;49.730;17.292;2023-01-25T09:12:48;99878.80;;;2.74;72.35
77823;BME280;67013;49.730;17.292;2023-01-25T09:15:18;99878.11;;;2.84;72.55
77823;BME280;67013;49.730;17.292;2023-01-25T09:17:47;99879.46;;;2.96;72.41
77823;BME280;67013;49.730;17.292;2023-01-25T09:20:18;99873.84;;;3.03;72.24
77823;BME280;67013;49.730;17.292;2023-01-25T09:22:48;99872.72;;;3.08;71.95
77823;BME280;67013;49.730;17.292;2023-01-25T09:25:17;99870.01;;;3.06;71.02
77823;BME280;67013;49.730;17.292;2023-01-25T09:27:49;99868.20;;;3.01;71.67
77823;BME280;67013;49.730;17.292;2023-01-25T09:30:19;99866.30;;;3.01;71.47
77823;BME280;67013;49.730;17.292;2023-01-25T09:32:50;99862.95;;;2.97;71.23
77823;BME280;67013;49.730;17.292;2023-01-25T09:35:19;99868.80;;;2.96;71.58
77823;BME280;67013;49.730;17.292;2023-01-25T09:37:51;99862.88;;;3.00;71.73
77823;BME280;67013;49.730;17.292;2023-01-25T09:40:22;99858.71;;;3.03;71.43
77823;BME280;67013;49.730;17.292;2023-01-25T09:43:00;99853.71;;;3.04;71.58
77823;BME280;67013;49.730;17.292;2023-01-25T09:45:35;99856.48;;;3.03;71.19
77823;BME280;67013;49.730;17.292;2023-01-25T09:48:14;99850.70;;;2.99;71.38
77823;BME280;67013;49.730;17.292;2023-01-25T09:51:01;99844.04;;;2.97;71.26
77823;BME280;67013;49.730;17.292;2023-01-25T09:53:36;99836.02;;;2.95;71.48
77823;BME280;67013;49.730;17.292;2023-01-25T09:56:11;99836.80;;;2.89;71.44
77823;BME280;67013;49.730;17.292;2023-01-25T09:58:44;99837.43;;;2.93;71.90
77823;BME280;67013;49.730;17.292;2023-01-25T10:01:22;99829.48;;;3.03;72.04
77823;BME280;67013;49.730;17.292;2023-01-25T10:03:56;99825.65;;;3.15;71.66
77823;BME280;67013;49.730;17.292;2023-01-25T10:06:38;99818.42;;;3.24;71.44
77823;BME280;67013;49.730;17.292;2023-01-25T10:09:32;99810.20;;;3.30;71.35
77823;BME280;67013;49.730;17.292;2023-01-25T10:12:12;99801.79;;;3.39;71.24
77823;BME280;67013;49.730;17.292;2023-01-25T10:14:43;99797.68;;;3.45;71.08
77823;BME280;67013;49.730;17.292;2023-01-25T10:17:16;99791.89;;;3.51;71.11
77823;BME280;67013;49.730;17.292;2023-01-25T10:20:02;99788.84;;;3.57;71.15
77823;BME280;67013;49.730;17.292;2023-01-25T10:22:37;99789.92;;;3.62;70.72
77823;BME280;67013;49.730;17.292;2023-01-25T10:25:24;99781.17;;;3.61;70.33
77823;BME280;67013;49.730;17.292;2023-01-25T10:28:21;99779.31;;;3.60;70.15
77823;BME280;67013;49.730;17.292;2023-01-25T10:30:58;99775.55;;;3.59;70.19
77823;BME280;67013;49.730;17.292;2023-01-25T10:33:30;99767.80;;;3.59;69.66
77823;BME280;67013;49.730;17.292;2023-01-25T10:36:04;99767.57;;;3.55;69.57
77823;BME280;67013;49.730;17.292;2023-01-25T10:38:38;99765.56;;;3.52;69.40
77823;BME280;67013;49.730;17.292;2023-01-25T10:41:14;99768.05;;;3.48;69.50
77823;BME280;67013;49.730;17.292;2023-01-25T10:43:44;99765.95;;;3.42;69.57
77823;BME280;67013;49.730;17.292;2023-01-25T10:46:23;99759.70;;;3.37;69.92
77823;BME280;67013;49.730;17.292;2023-01-25T10:48:54;99755.95;;;3.35;70.08
77823;BME280;67013;49.730;17.292;2023-01-25T10:51:32;99748.03;;;3.36;70.20
77823;BME280;67013;49.730;17.292;2023-01-25T10:54:12;99744.85;;;3.40;70.06
77823;BME280;67013;49.730;17.292;2023-01-25T10:56:41;99741.30;;;3.44;70.02
77823;BME280;67013;49.730;17.292;2023-01-25T10:59:19;99732.59;;;3.49;70.02
77823;BME280;67013;49.730;17.292;2023-01-25T11:01:49;99729.91;;;3.55;69.83
77823;BME280;67013;49.730;17.292;2023-01-25T11:04:38;99717.96;;;3.57;69.80
77823;BME280;67013;49.730;17.292;2023-01-25T11:07:26;99717.38;;;3.60;69.90
77823;BME280;67013;49.730;17.292;2023-01-25T11:09:58;99715.33;;;3.67;70.21
77823;BME280;67013;49.730;17.292;2023-01-25T11:12:27;99710.95;;;3.77;70.08
77823;BME280;67013;49.730;17.292;2023-01-25T11:14:57;99706.63;;;3.85;69.76
77823;BME280;67013;49.730;17.292;2023-01-25T11:18:04;99699.90;;;3.93;69.71
77823;BME280;67013;49.730;17.292;2023-01-25T11:20:34;99691.63;;;4.01;69.53
77823;BME280;67013;49.730;17.292;2023-01-25T11:23:15;99687.86;;;4.06;69.50
77823;BME280;67013;49.730;17.292;2023-01-25T11:25:49;99684.45;;;4.12;69.36
77823;BME280;67013;49.730;17.292;2023-01-25T11:28:21;99682.08;;;4.16;69.39
77823;BME280;67013;49.730;17.292;2023-01-25T11:30:52;99678.09;;;4.17;68.66
77823;BME280;67013;49.730;17.292;2023-01-25T11:33:24;99675.55;;;4.16;68.74
77823;BME280;67013;49.730;17.292;2023-01-25T11:36:18;99672.98;;;4.16;68.67
77823;BME280;67013;49.730;17.292;2023-01-25T11:39:00;99667.60;;;4.17;68.69
77823;BME280;67013;49.730;17.292;2023-01-25T11:41:45;99662.19;;;4.14;67.95
77823;BME280;67013;49.730;17.292;2023-01-25T11:47:17;99655.41;;;4.02;68.27
77823;BME280;67013;49.730;17.292;2023-01-25T11:50:00;99651.04;;;4.00;68.75
77823;BME280;67013;49.730;17.292;2023-01-25T11:52:42;99647.94;;;4.00;68.80
77823;BME280;67013;49.730;17.292;2023-01-25T11:55:24;99643.77;;;4.01;68.39
77823;BME280;67013;49.730;17.292;2023-01-25T11:58:09;99645.61;;;3.97;68.41
77823;BME280;67013;49.730;17.292;2023-01-25T12:00:53;99645.71;;;3.92;68.60
77823;BME280;67013;49.730;17.292;2023-01-25T12:04:02;99646.49;;;3.82;68.16
77823;BME280;67013;49.730;17.292;2023-01-25T12:06:49;99635.14;;;3.69;68.11
77823;BME280;67013;49.730;17.292;2023-01-25T12:09:33;99634.52;;;3.51;68.31
77823;BME280;67013;49.730;17.292;2023-01-25T12:12:11;99630.05;;;3.37;68.86
77823;BME280;67013;49.730;17.292;2023-01-25T12:14:53;99624.14;;;3.26;69.12
77823;BME280;67013;49.730;17.292;2023-01-25T12:17:37;99621.88;;;3.19;69.61
77823;BME280;67013;49.730;17.292;2023-01-25T12:20:30;99616.79;;;3.16;69.76
77823;BME280;67013;49.730;17.292;2023-01-25T12:23:25;99611.92;;;3.19;70.01
77823;BME280;67013;49.730;17.292;2023-01-25T12:26:09;99606.55;;;3.21;69.84
77823;BME280;67013;49.730;17.292;2023-01-25T12:28:43;99602.79;;;3.20;69.93
77823;BME280;67013;49.730;17.292;2023-01-25T12:31:18;99601.61;;;3.19;70.14
77823;BME280;67013;49.730;17.292;2023-01-25T12:33:55;99590.00;;;3.15;70.28
77823;BME280;67013;49.730;17.292;2023-01-25T12:36:27;99586.49;;;3.11;70.71
77823;BME280;67013;49.730;17.292;2023-01-25T12:39:03;99586.39;;;3.15;70.53
77823;BME280;67013;49.730;17.292;2023-01-25T12:41:39;99583.95;;;3.16;70.54
77823;BME280;67013;49.730;17.292;2023-01-25T12:44:18;99579.21;;;3.13;70.54
77823;BME280;67013;49.730;17.292;2023-01-25T13:00:40;99568.73;;;3.42;69.59
77823;BME280;67013;49.730;17.292;2023-01-25T13:03:20;99562.59;;;3.26;69.43
77823;BME280;67013;49.730;17.292;2023-01-25T13:05:58;99564.67;;;3.03;70.04
77823;BME280;67013;49.730;17.292;2023-01-25T13:08:40;99567.02;;;2.92;70.55
77823;BME280;67013;49.730;17.292;2023-01-25T13:11:17;99563.25;;;2.83;70.77
77823;BME280;67013;49.730;17.292;2023-01-25T13:13:48;99570.54;;;2.72;71.12
77823;BME280;67013;49.730;17.292;2023-01-25T13:16:38;99568.72;;;2.62;71.47
77823;BME280;67013;49.730;17.292;2023-01-25T13:19:21;99572.13;;;2.47;71.63
77823;BME280;67013;49.730;17.292;2023-01-25T13:21:51;99573.23;;;2.43;71.63
77823;BME280;67013;49.730;17.292;2023-01-25T13:24:25;99573.98;;;2.40;71.97
77823;BME280;67013;49.730;17.292;2023-01-25T13:27:03;99568.18;;;2.38;72.26
77823;BME280;67013;49.730;17.292;2023-01-25T13:29:56;99560.80;;;2.38;72.43
77823;BME280;67013;49.730;17.292;2023-01-25T13:32:54;99551.67;;;2.40;72.59
77823;BME280;67013;49.730;17.292;2023-01-25T13:35:38;99550.52;;;2.45;72.77
77823;BME280;67013;49.730;17.292;2023-01-25T13:38:30;99547.22;;;2.48;72.66
77823;BME280;67013;49.730;17.292;2023-01-25T13:41:10;99541.40;;;2.47;72.60
77823;BME280;67013;49.730;17.292;2023-01-25T13:43:42;99535.66;;;2.42;72.72